Time;durP1;ratioP1;P1;durP2;ratioP2;P2;SDS_P1;SDS_P2;PMS_P1;PMS_P2;Temp;Humidity;BMP_temperature;BMP_pressure;BME280_temperature;BME280_humidity;BME280_pressure;Samples;Min_cycle;Max_cycle;Signal;HPM_P1;HPM_P2
2023/10/16 00:01:27;;;;;;;1999.90;999.90;;;6.80;99.90;;;;;;5115935;28;20446;-66
2023/10/16 00:03:55;;;;;;;1999.90;999.90;;;6.70;99.90;;;;;;5116100;28;20197;-68
2023/10/16 00:06:21;;;;;;;1999.90;999.90;;;6.70;99.90;;;;;;5115612;28;20475;-66
2023/10/16 00:08:47;;;;;;;1999.90;999.90;;;6.70;99.90;;;;;;5115763;28;20396;-67
2023/10/16 00:11:18;;;;;;;1999.90;999.90;;;6.70;99.90;;;;;;5115595;28;20201;-68
2023/10/16 00:13:50;;;;;;;1999.90;999.90;;;6.70;99.90;;;;;;5115888;28;20170;-67
2023/10/16 00:16:17;;;;;;;1999.90;999.90;;;6.70;99.90;;;;;;5115934;28;20871;-67
2023/10/16 00:18:45;;;;;;;1999.90;999.90;;;6.70;99.90;;;;;;5115717;28;20403;-67
2023/10/16 00:21:11;;;;;;;1999.90;999.90;;;6.70;99.90;;;;;;5115523;28;20983;-68
2023/10/16 00:23:40;;;;;;;1999.90;999.90;;;6.70;99.90;;;;;;5115434;28;20407;-67
2023/10/16 00:26:07;;;;;;;1999.90;999.90;;;6.60;99.90;;;;;;5115278;28;20824;-67
2023/10/16 00:28:35;;;;;;;1999.90;999.90;;;6.60;99.90;;;;;;5115207;28;20495;-66
2023/10/16 00:31:02;;;;;;;1999.90;999.90;;;6.70;99.90;;;;;;5115348;28;20434;-67
2023/10/16 00:33:28;;;;;;;1999.90;999.90;;;6.60;99.90;;;;;;5114383;28;20400;-67
2023/10/16 00:35:53;;;;;;;1999.90;999.90;;;6.50;99.90;;;;;;5115360;28;20405;-67
2023/10/16 00:38:22;;;;;;;1999.90;999.90;;;6.50;99.90;;;;;;5115030;28;20248;-67
2023/10/16 00:41:10;;;;;;;1999.90;999.90;;;6.30;99.90;;;;;;5115116;28;20178;-66
2023/10/16 00:43:35;;;;;;;1999.90;999.90;;;6.50;99.90;;;;;;5115116;28;20400;-67
2023/10/16 00:46:11;;;;;;;1999.90;999.90;;;6.50;99.90;;;;;;5115115;28;20463;-66
2023/10/16 00:48:39;;;;;;;1999.90;999.90;;;6.50;99.90;;;;;;5114957;28;20171;-68
2023/10/16 00:51:08;;;;;;;1999.90;999.90;;;6.50;99.90;;;;;;5114904;28;20981;-67
2023/10/16 00:53:34;;;;;;;1999.90;999.90;;;6.50;99.90;;;;;;5114912;28;20424;-67
2023/10/16 00:56:08;;;;;;;1999.90;999.90;;;6.50;99.90;;;;;;5114757;28;20408;-67
2023/10/16 00:58:36;;;;;;;1999.90;999.90;;;6.40;99.90;;;;;;5114911;28;20499;-68
2023/10/16 01:01:09;;;;;;;1999.90;999.90;;;6.50;99.90;;;;;;5114814;28;20518;-66
2023/10/16 01:03:37;;;;;;;1999.90;999.90;;;6.40;99.90;;;;;;5114743;28;20408;-66
2023/10/16 01:06:15;;;;;;;1999.90;999.90;;;6.40;99.90;;;;;;5114999;28;20950;-65
2023/10/16 01:08:45;;;;;;;1999.90;999.90;;;6.40;99.90;;;;;;5114522;28;20423;-66
2023/10/16 01:11:14;;;;;;;1999.90;999.90;;;6.50;99.90;;;;;;5114331;28;20448;-66
2023/10/16 01:13:40;;;;;;;1999.90;999.90;;;6.40;99.90;;;;;;5114569;28;20495;-66
2023/10/16 01:16:07;;;;;;;1999.90;999.90;;;6.30;99.90;;;;;;5114404;28;20412;-67
2023/10/16 01:18:36;;;;;;;1999.90;999.90;;;6.20;99.90;;;;;;5114613;28;20506;-67
2023/10/16 01:21:05;;;;;;;1999.90;999.90;;;6.20;99.90;;;;;;5114618;28;20432;-66
2023/10/16 01:23:34;;;;;;;1999.90;999.90;;;6.20;99.90;;;;;;5114381;28;20830;-66
2023/10/16 01:26:01;;;;;;;1999.90;999.90;;;6.20;99.90;;;;;;5114225;28;20489;-68
2023/10/16 01:28:27;;;;;;;1999.90;999.90;;;6.10;99.90;;;;;;5114176;28;20493;-67
2023/10/16 01:30:53;;;;;;;1999.90;999.90;;;6.10;99.90;;;;;;5114175;28;20407;-66
2023/10/16 01:33:20;;;;;;;1999.90;999.90;;;6.00;99.90;;;;;;5114318;28;20408;-67
2023/10/16 01:35:46;;;;;;;1999.90;999.90;;;6.00;99.90;;;;;;5114380;28;20790;-66
2023/10/16 01:38:16;;;;;;;1999.90;999.90;;;6.00;99.90;;;;;;5114005;28;20411;-66
2023/10/16 01:41:05;;;;;;;1999.90;999.90;;;6.10;99.90;;;;;;5114029;28;20407;-67
2023/10/16 01:43:35;;;;;;;1999.90;999.90;;;5.90;99.90;;;;;;5113993;28;20462;-67
2023/10/16 01:46:08;;;;;;;1999.90;999.90;;;5.90;99.90;;;;;;5114028;28;20451;-67
2023/10/16 01:48:40;;;;;;;1999.90;999.90;;;5.80;99.90;;;;;;5113766;28;20404;-66
2023/10/16 01:51:06;;;;;;;1999.90;999.90;;;5.60;99.90;;;;;;5113827;28;20424;-66
2023/10/16 01:53:36;;;;;;;1999.90;999.90;;;5.40;99.90;;;;;;5113802;28;20410;-67
2023/10/16 01:56:12;;;;;;;1999.90;999.90;;;5.40;99.90;;;;;;5113878;28;20420;-67
2023/10/16 01:58:41;;;;;;;1999.90;999.90;;;5.30;99.90;;;;;;5113813;28;20411;-67
2023/10/16 02:01:08;;;;;;;1999.90;999.90;;;5.40;99.90;;;;;;5113459;28;20974;-67
2023/10/16 02:03:34;;;;;;;1999.90;999.90;;;5.30;99.90;;;;;;5113571;28;20793;-66
2023/10/16 02:06:00;;;;;;;1999.90;999.90;;;5.20;99.90;;;;;;5113456;28;20558;-66
2023/10/16 02:08:25;;;;;;;1999.90;999.90;;;5.30;99.90;;;;;;5113236;28;20202;-67
2023/10/16 02:10:52;;;;;;;1999.90;999.90;;;5.30;99.90;;;;;;5113222;28;20189;-67
2023/10/16 02:13:18;;;;;;;1999.90;999.90;;;5.30;99.90;;;;;;5113430;28;20183;-67
2023/10/16 02:15:44;;;;;;;1999.90;999.90;;;5.20;99.90;;;;;;5113339;28;20403;-67
2023/10/16 02:18:20;;;;;;;1999.90;999.90;;;5.30;99.90;;;;;;5113192;28;20411;-67
2023/10/16 02:20:45;;;;;;;1999.90;999.90;;;5.50;99.90;;;;;;5113091;28;20388;-67
2023/10/16 02:23:12;;;;;;;1999.90;999.90;;;5.40;99.90;;;;;;5113487;28;20411;-68
2023/10/16 02:25:37;;;;;;;1999.90;999.90;;;5.40;99.90;;;;;;5113136;28;20204;-67
2023/10/16 02:28:13;;;;;;;1999.90;999.90;;;5.40;99.90;;;;;;5113104;28;20432;-67
2023/10/16 02:30:40;;;;;;;1999.90;999.90;;;5.40;99.90;;;;;;5113218;28;20219;-67
2023/10/16 02:33:14;;;;;;;1999.90;999.90;;;5.30;99.90;;;;;;5112953;28;20415;-67
2023/10/16 02:35:42;;;;;;;1999.90;999.90;;;5.30;99.90;;;;;;5112978;28;20955;-67
2023/10/16 02:38:13;;;;;;;1999.90;999.90;;;5.20;99.90;;;;;;5112835;28;20403;-67
2023/10/16 02:40:41;;;;;;;1999.90;999.90;;;5.10;99.90;;;;;;5112990;28;20403;-67
2023/10/16 02:43:13;;;;;;;1999.90;999.90;;;5.10;99.90;;;;;;5112836;28;20410;-66
2023/10/16 02:45:42;;;;;;;1999.90;999.90;;;5.10;99.90;;;;;;5112729;28;20407;-68
2023/10/16 02:48:09;;;;;;;1999.90;999.90;;;5.00;99.90;;;;;;5112489;28;20410;-67
2023/10/16 02:50:35;;;;;;;1999.90;999.90;;;5.00;99.90;;;;;;5112707;28;20410;-66
2023/10/16 02:53:05;;;;;;;1999.90;999.90;;;5.00;99.90;;;;;;5112624;28;20431;-66
2023/10/16 02:55:32;;;;;;;1999.90;999.90;;;5.00;99.90;;;;;;5112416;28;20407;-66
2023/10/16 02:57:58;;;;;;;1999.90;999.90;;;5.00;99.90;;;;;;5112630;28;20482;-67
2023/10/16 03:00:34;;;;;;;1999.90;999.90;;;5.00;99.90;;;;;;5111093;28;20415;-68
2023/10/16 03:03:00;;;;;;;1999.90;999.90;;;5.00;99.90;;;;;;5112416;28;20423;-67
2023/10/16 03:05:28;;;;;;;1999.90;999.90;;;5.00;99.90;;;;;;5112676;28;20418;-68
2023/10/16 03:07:54;;;;;;;1999.90;999.90;;;5.00;99.90;;;;;;5112731;28;20473;-67
2023/10/16 03:10:23;;;;;;;1999.90;999.90;;;5.00;99.90;;;;;;5112150;28;20426;-66
2023/10/16 03:12:51;;;;;;;1999.90;999.90;;;5.00;99.90;;;;;;5112369;28;20424;-67
2023/10/16 03:15:20;;;;;;;1999.90;999.90;;;5.00;99.90;;;;;;5112594;28;20407;-66
2023/10/16 03:17:54;;;;;;;1999.90;999.90;;;5.00;99.90;;;;;;5112472;28;20408;-68
2023/10/16 03:20:27;;;;;;;1999.90;999.90;;;5.00;99.90;;;;;;5112319;28;20918;-68
2023/10/16 03:22:53;;;;;;;1999.90;999.90;;;4.90;99.90;;;;;;5112314;28;20427;-67
2023/10/16 03:25:27;;;;;;;1999.90;999.90;;;4.80;99.90;;;;;;5112355;28;20396;-67
2023/10/16 03:27:57;;;;;;;1999.90;999.90;;;4.80;99.90;;;;;;5112242;28;20186;-67
2023/10/16 03:30:29;;;;;;;1999.90;999.90;;;4.80;99.90;;;;;;5112086;28;20452;-67
2023/10/16 03:32:54;;;;;;;1999.90;999.90;;;4.70;99.90;;;;;;5112417;28;20455;-68
2023/10/16 03:35:26;;;;;;;1999.90;999.90;;;4.70;99.90;;;;;;5112259;28;20423;-67
2023/10/16 03:37:53;;;;;;;1999.90;999.90;;;4.70;99.90;;;;;;5112071;28;20181;-66
2023/10/16 03:40:19;;;;;;;1999.90;999.90;;;4.60;99.90;;;;;;5112199;28;20457;-67
2023/10/16 03:42:46;;;;;;;1999.90;999.90;;;4.50;99.90;;;;;;5112217;28;20419;-67
2023/10/16 03:45:13;;;;;;;1999.90;999.90;;;4.50;99.90;;;;;;5112081;28;20482;-67
2023/10/16 03:47:39;;;;;;;1999.90;999.90;;;4.50;99.90;;;;;;5112043;28;20537;-67
2023/10/16 03:50:06;;;;;;;1999.90;999.90;;;4.50;99.90;;;;;;5111850;28;20484;-68
2023/10/16 03:52:33;;;;;;;1999.90;999.90;;;4.50;99.90;;;;;;5111891;28;20194;-66
2023/10/16 03:57:45;;;;;;;1999.90;999.90;;;4.40;99.90;;;;;;5112317;28;20414;-67
2023/10/16 04:00:15;;;;;;;1999.90;999.90;;;4.40;99.90;;;;;;5112044;28;20460;-66
2023/10/16 04:02:41;;;;;;;1999.90;999.90;;;4.40;99.90;;;;;;5111865;28;20423;-67
2023/10/16 04:05:29;;;;;;;1999.90;999.90;;;4.40;99.90;;;;;;5111930;28;20488;-67
2023/10/16 04:07:53;;;;;;;1999.90;999.90;;;4.40;99.90;;;;;;5113084;28;20869;-67
2023/10/16 04:10:28;;;;;;;1999.90;999.90;;;4.40;99.90;;;;;;5115371;28;20432;-68
2023/10/16 04:12:57;;;;;;;1999.90;999.90;;;4.30;99.90;;;;;;5115712;28;20622;-67
2023/10/16 04:15:48;;;;;;;1999.90;999.90;;;4.40;99.90;;;;;;5115753;28;20403;-67
2023/10/16 04:31:45;;;;;;;1999.90;999.90;;;4.30;99.90;;;;;;5115376;28;20790;-67
2023/10/16 04:34:24;;;;;;;1999.90;999.90;;;4.30;99.90;;;;;;5115546;28;20248;-67
2023/10/16 04:36:53;;;;;;;1999.90;999.90;;;4.20;99.90;;;;;;5112917;28;20782;-67
2023/10/16 04:45:23;;;;;;;1999.90;999.90;;;4.10;99.90;;;;;;5115453;28;20457;-65
2023/10/16 04:50:29;;;;;;;1999.90;999.90;;;3.90;99.90;;;;;;5114885;28;20403;-66
2023/10/16 05:10:10;;;;;;;1999.90;999.90;;;3.90;99.90;;;;;;5115041;28;20384;-65
2023/10/16 06:14:48;;;;;;;1999.90;999.90;;;4.10;99.90;;;;;;5079162;28;20447;-68
2023/10/16 06:17:15;;;;;;;1999.90;999.90;;;4.10;99.90;;;;;;5078432;28;20481;-68
2023/10/16 06:19:44;;;;;;;1999.90;999.90;;;4.20;99.90;;;;;;5078248;28;20171;-67
2023/10/16 06:22:11;;;;;;;1999.90;999.90;;;4.20;99.90;;;;;;5101827;28;20446;-68
2023/10/16 06:24:38;;;;;;;1999.90;999.90;;;4.20;99.90;;;;;;5109014;28;20491;-68
2023/10/16 06:27:11;;;;;;;1999.90;999.90;;;4.20;99.90;;;;;;5119060;28;20462;-67
2023/10/16 06:29:50;;;;;;;1999.90;999.90;;;4.30;99.90;;;;;;5119109;28;20411;-66
2023/10/16 06:32:20;;;;;;;1999.90;999.90;;;4.30;99.90;;;;;;5119260;28;20431;-68
2023/10/16 06:34:49;;;;;;;1999.90;999.90;;;4.40;99.90;;;;;;5118882;28;20778;-66
2023/10/16 06:37:21;;;;;;;1999.90;999.90;;;4.40;99.90;;;;;;5119336;28;20436;-68
2023/10/16 06:39:49;;;;;;;1999.90;999.90;;;4.30;99.90;;;;;;5119324;28;20494;-68
2023/10/16 06:42:18;;;;;;;1999.90;999.90;;;4.30;99.90;;;;;;5119126;28;20419;-68
2023/10/16 06:45:06;;;;;;;1999.90;999.90;;;4.30;99.90;;;;;;5119237;28;20487;-69
2023/10/16 06:47:47;;;;;;;1999.90;999.90;;;4.40;99.90;;;;;;5119055;28;20451;-68
2023/10/16 06:52:52;;;;;;;1999.90;999.90;;;4.50;99.90;;;;;;5119967;28;20415;-68
2023/10/16 06:55:18;;;;;;;1999.90;999.90;;;4.60;99.90;;;;;;5120038;28;20888;-68
2023/10/16 06:57:44;;;;;;;1999.90;999.90;;;4.60;99.90;;;;;;5120228;28;20403;-69
2023/10/16 07:00:32;;;;;;;1999.90;999.90;;;4.70;99.90;;;;;;5119122;28;20408;-66
2023/10/16 07:02:58;;;;;;;1999.90;999.90;;;4.80;99.90;;;;;;5119632;28;20458;-68
2023/10/16 07:05:25;;;;;;;1999.90;999.90;;;4.90;99.90;;;;;;5119343;28;20408;-67
2023/10/16 07:07:57;;;;;;;1999.90;999.90;;;4.80;99.90;;;;;;5107248;28;20550;-68
2023/10/16 07:10:23;;;;;;;1999.90;999.90;;;4.80;99.90;;;;;;5107052;28;20917;-68
2023/10/16 07:13:02;;;;;;;1999.90;999.90;;;4.80;99.90;;;;;;5101939;28;20790;-67
2023/10/16 07:15:29;;;;;;;1999.90;999.90;;;4.80;99.90;;;;;;5102985;28;20516;-67
2023/10/16 07:17:56;;;;;;;1999.90;999.90;;;4.90;99.90;;;;;;5108147;28;20411;-68
2023/10/16 07:20:28;;;;;;;1999.90;999.90;;;5.00;99.90;;;;;;5096948;28;20416;-68
2023/10/16 07:23:00;;;;;;;1999.90;999.90;;;5.20;99.90;;;;;;5098213;28;20802;-66
2023/10/16 07:28:11;;;;;;;1999.90;999.90;;;5.30;99.90;;;;;;5103835;28;20473;-68
2023/10/16 07:30:37;;;;;;;1999.90;999.90;;;5.40;99.90;;;;;;5109534;28;20399;-67
2023/10/16 07:33:03;;;;;;;1999.90;999.90;;;5.40;99.90;;;;;;5118127;28;20189;-67
2023/10/16 07:35:28;;;;;;;1999.90;999.90;;;5.50;99.90;;;;;;5118404;28;20400;-67
2023/10/16 07:37:54;;;;;;;1999.90;999.90;;;5.60;99.90;;;;;;5118761;28;20391;-69
2023/10/16 07:40:20;;;;;;;1999.90;999.90;;;5.70;99.90;;;;;;5118106;28;20178;-69
2023/10/16 07:42:49;;;;;;;1999.90;999.90;;;5.70;99.90;;;;;;5121633;28;20189;-68
2023/10/16 07:45:15;;;;;;;1999.90;999.90;;;5.80;99.90;;;;;;5122442;28;20782;-66
2023/10/16 07:47:41;;;;;;;1999.90;999.90;;;5.80;99.90;;;;;;5122447;28;20480;-68
2023/10/16 07:50:11;;;;;;;1999.90;999.90;;;5.80;99.90;;;;;;5122610;28;20468;-67
2023/10/16 07:52:36;;;;;;;1999.90;999.90;;;6.00;99.90;;;;;;5122747;28;20445;-67
2023/10/16 07:55:03;;;;;;;1999.90;999.90;;;6.10;99.90;;;;;;5122766;28;20419;-68
2023/10/16 07:57:32;;;;;;;1999.90;999.90;;;6.10;99.90;;;;;;5123479;28;20166;-68
2023/10/16 07:59:58;;;;;;;1999.90;999.90;;;6.20;99.90;;;;;;5122987;28;20422;-68
2023/10/16 08:02:24;;;;;;;1999.90;999.90;;;6.30;99.90;;;;;;5122373;28;20438;-69
2023/10/16 08:04:53;;;;;;;1999.90;999.90;;;6.20;99.90;;;;;;5123078;28;20169;-69
2023/10/16 08:07:18;;;;;;;1999.90;999.90;;;6.30;99.90;;;;;;5122524;28;20447;-69
2023/10/16 08:12:19;;;;;;;1999.90;999.90;;;6.40;99.90;;;;;;5122844;28;20189;-68
2023/10/16 08:14:46;;;;;;;1999.90;999.90;;;6.50;99.90;;;;;;5123019;28;20449;-67
2023/10/16 08:17:15;;;;;;;1999.90;999.90;;;6.60;99.90;;;;;;5122248;28;20170;-69
2023/10/16 08:19:46;;;;;;;1999.90;999.90;;;6.60;99.90;;;;;;5121776;28;20427;-67
2023/10/16 08:22:15;;;;;;;1999.90;999.90;;;6.80;99.90;;;;;;5122592;28;20951;-68
2023/10/16 08:24:57;;;;;;;1999.90;999.90;;;6.90;99.90;;;;;;5121593;28;20414;-69
2023/10/16 08:30:17;;;;;;;1999.90;999.90;;;7.10;99.90;;;;;;5121453;28;20813;-68
2023/10/16 08:35:19;;;;;;;1999.90;999.90;;;7.20;99.90;;;;;;5121099;28;20773;-67
2023/10/16 08:37:56;;;;;;;1999.90;999.90;;;7.30;99.90;;;;;;5120955;28;20409;-69
2023/10/16 08:40:32;;;;;;;1999.90;999.90;;;7.40;99.90;;;;;;5119177;28;20454;-69
2023/10/16 08:43:00;;;;;;;1999.90;999.90;;;7.50;99.90;;;;;;5119865;28;21000;-69
2023/10/16 08:45:32;;;;;;;1999.90;999.90;;;7.70;99.90;;;;;;5120539;28;20914;-68
2023/10/16 08:47:58;;;;;;;1999.90;999.90;;;7.90;99.90;;;;;;5121953;28;20453;-66
2023/10/16 08:51:08;;;;;;;1999.90;999.90;;;7.90;99.90;;;;;;5118735;28;20410;-69
2023/10/16 08:53:32;;;;;;;1999.90;999.90;;;8.00;99.90;;;;;;5111935;28;20425;-68
2023/10/16 08:56:08;;;;;;;1999.90;999.90;;;8.20;99.90;;;;;;5118384;28;20602;-68
2023/10/16 08:58:40;;;;;;;1999.90;999.90;;;8.30;99.90;;;;;;5118767;28;20926;-67
2023/10/16 09:01:09;;;;;;;1999.90;999.90;;;8.40;99.90;;;;;;5118518;28;20840;-68
2023/10/16 09:03:44;;;;;;;1999.90;999.90;;;8.60;99.90;;;;;;5118817;28;20407;-69
2023/10/16 09:06:13;;;;;;;1999.90;999.90;;;8.40;99.90;;;;;;5119107;28;20463;-69
2023/10/16 09:08:41;;;;;;;1999.90;999.90;;;8.50;99.90;;;;;;5118221;28;20501;-69
2023/10/16 09:11:07;;;;;;;1999.90;999.90;;;8.50;99.90;;;;;;5117664;28;20482;-69
2023/10/16 09:13:36;;;;;;;1999.90;999.90;;;8.60;99.90;;;;;;5117958;28;20405;-69
2023/10/16 09:16:08;;;;;;;1999.90;999.90;;;8.70;99.90;;;;;;5117960;28;20414;-68
2023/10/16 09:18:34;;;;;;;1999.90;999.90;;;8.70;99.90;;;;;;5117829;28;20416;-69
2023/10/16 09:21:00;;;;;;;1999.90;999.90;;;8.90;99.90;;;;;;5118253;28;20414;-69
2023/10/16 09:23:36;;;;;;;1999.90;999.90;;;8.90;99.90;;;;;;5118319;28;20410;-69
2023/10/16 09:26:02;;;;;;;1999.90;999.90;;;9.00;99.90;;;;;;5117864;28;20891;-69
2023/10/16 09:28:32;;;;;;;1999.90;999.90;;;9.10;99.90;;;;;;5117782;28;20900;-69
2023/10/16 09:31:01;;;;;;;1999.90;999.90;;;9.40;99.90;;;;;;5118027;28;20779;-69
2023/10/16 09:33:27;;;;;;;1999.90;999.90;;;9.20;99.90;;;;;;5118685;28;20411;-68
2023/10/16 09:36:00;;;;;;;1999.90;999.90;;;9.40;99.90;;;;;;5117916;28;20566;-68
2023/10/16 09:38:32;;;;;;;1999.90;999.90;;;9.50;99.90;;;;;;5117255;28;20603;-68
2023/10/16 09:44:06;;;;;;;1999.90;999.90;;;9.70;99.90;;;;;;5117418;28;20430;-68
2023/10/16 09:46:52;;;;;;;1999.90;999.90;;;9.80;99.90;;;;;;5118003;28;20463;-68
2023/10/16 09:49:23;;;;;;;1999.90;999.90;;;9.90;99.90;;;;;;5117809;28;20456;-69
2023/10/16 09:51:50;;;;;;;1999.90;999.90;;;10.10;99.90;;;;;;5117821;28;20424;-68
2023/10/16 09:54:16;;;;;;;1999.90;999.90;;;10.20;99.90;;;;;;5114819;28;20774;-67
2023/10/16 09:56:44;;;;;;;1999.90;999.90;;;10.30;99.90;;;;;;5113623;28;20404;-66
2023/10/16 09:59:32;;;;;;;1999.90;999.90;;;10.50;99.90;;;;;;5113388;28;20173;-67
2023/10/16 10:02:05;;;;;;;1999.90;999.90;;;10.50;99.90;;;;;;5113721;28;20422;-67
2023/10/16 10:04:33;;;;;;;1999.90;999.90;;;10.60;99.90;;;;;;5113147;28;20805;-67
2023/10/16 10:07:00;;;;;;;1999.90;999.90;;;10.80;99.90;;;;;;5112926;28;20445;-66
2023/10/16 10:09:41;;;;;;;1999.90;999.90;;;10.90;99.90;;;;;;5113048;28;20407;-68
2023/10/16 10:12:28;;;;;;;1999.90;999.90;;;10.90;99.90;;;;;;5097281;28;20525;-66
2023/10/16 10:15:35;;;;;;;1999.90;999.90;;;11.10;99.90;;;;;;5102348;28;20417;-67
2023/10/16 10:18:32;;;;;;;1999.90;999.90;;;11.30;99.90;;;;;;5091020;28;20498;-67
2023/10/16 10:20:48;;;;;;;1999.90;999.90;;;11.80;99.90;;;;;;5106649;28;20455;-67
2023/10/16 10:23:15;;;;;;;1999.90;999.90;;;11.70;99.90;;;;;;5095015;28;20400;-67
2023/10/16 10:25:42;;;;;;;1999.90;999.90;;;11.80;99.90;;;;;;5092639;28;20820;-69
2023/10/16 10:28:28;;;;;;;1999.90;999.90;;;11.90;99.90;;;;;;5084629;28;20463;-68
2023/10/16 10:31:04;;;;;;;1999.90;999.90;;;12.00;99.90;;;;;;5072809;28;20455;-67
2023/10/16 10:33:42;;;;;;;1999.90;999.90;;;12.20;99.90;;;;;;5091555;28;20423;-67
2023/10/16 10:36:39;;;;;;;1999.90;999.90;;;12.30;99.90;;;;;;5087996;28;20423;-68
2023/10/16 10:39:38;;;;;;;1999.90;999.90;;;12.40;99.90;;;;;;5092505;28;20405;-67
2023/10/16 10:42:04;;;;;;;1999.90;999.90;;;12.50;99.90;;;;;;5087152;28;20979;-68
2023/10/16 10:44:35;;;;;;;1999.90;999.90;;;12.60;99.90;;;;;;5103757;28;20412;-68
2023/10/16 10:47:14;;;;;;;1999.90;999.90;;;12.80;99.90;;;;;;5092053;28;20525;-66
2023/10/16 10:49:41;;;;;;;1999.90;999.90;;;13.00;99.90;;;;;;5109378;28;20413;-67
2023/10/16 10:52:07;;;;;;;1999.90;999.90;;;13.20;99.90;;;;;;5111854;28;20430;-66
2023/10/16 10:54:42;;;;;;;1999.90;999.90;;;13.40;99.90;;;;;;5112241;28;20425;-67
2023/10/16 10:57:17;;;;;;;1999.90;999.90;;;13.50;99.90;;;;;;5112228;28;20184;-67
2023/10/16 10:59:47;;;;;;;1999.90;999.90;;;13.60;99.90;;;;;;5111794;28;20440;-68
2023/10/16 11:04:46;;;;;;;1999.90;999.90;;;14.00;99.90;;;;;;5112189;28;20477;-66
2023/10/16 11:07:23;;;;;;;1999.90;999.90;;;14.10;99.90;;;;;;5111637;28;20450;-68
2023/10/16 11:09:49;;;;;;;1999.90;999.90;;;14.30;99.90;;;;;;5111752;28;20426;-66
2023/10/16 11:12:15;;;;;;;1999.90;999.90;;;14.50;99.90;;;;;;5111829;28;20473;-67
2023/10/16 11:14:40;;;;;;;1999.90;999.90;;;14.70;99.90;;;;;;5112013;28;20405;-67
2023/10/16 11:17:06;;;;;;;1999.90;999.90;;;14.90;99.90;;;;;;5111680;28;20170;-67
2023/10/16 11:19:47;;;;;;;1999.90;999.90;;;15.30;99.90;;;;;;5111840;28;20244;-67
2023/10/16 11:22:20;;;;;;;1999.90;999.90;;;15.60;99.90;;;;;;5111666;28;20282;-66
2023/10/16 11:24:47;;;;;;;1999.90;999.90;;;16.20;95.60;;;;;;5112007;28;20822;-67
2023/10/16 11:27:14;;;;;;;1999.90;999.90;;;16.80;92.00;;;;;;5111638;28;20493;-67
2023/10/16 11:29:42;;;;;;;1999.90;999.90;;;17.40;87.00;;;;;;5111456;28;20488;-67
2023/10/16 11:32:13;;;;;;;1999.90;999.90;;;18.00;75.90;;;;;;5111726;28;20426;-66
2023/10/16 11:34:46;;;;;;;1999.90;999.90;;;18.60;68.80;;;;;;5111795;28;20413;-67
2023/10/16 11:37:13;;;;;;;1999.90;999.90;;;19.00;57.80;;;;;;5111550;28;20414;-67
2023/10/16 11:39:39;;;;;;;1999.90;999.90;;;19.40;53.20;;;;;;5111606;28;20542;-68
2023/10/16 11:42:06;;;;;;;1999.90;999.90;;;19.80;43.50;;;;;;5111395;28;20517;-66
2023/10/16 11:44:32;;;;;;;1999.90;999.90;;;19.90;37.60;;;;;;5111731;28;20492;-66
2023/10/16 11:47:01;;;;;;;1999.90;999.90;;;20.20;34.30;;;;;;5111628;28;21031;-67
2023/10/16 11:49:31;;;;;;;1999.90;999.90;;;20.30;31.40;;;;;;5111447;28;20183;-68
2023/10/16 11:52:22;;;;;;;1999.90;999.90;;;20.80;25.80;;;;;;5111577;28;20425;-68
2023/10/16 11:54:52;;;;;;;1999.90;999.90;;;20.80;23.50;;;;;;5111712;28;20415;-66
2023/10/16 11:57:18;;;;;;;1999.90;999.90;;;21.00;19.20;;;;;;5111634;28;20410;-67
2023/10/16 11:59:44;;;;;;;1999.90;999.90;;;21.30;19.30;;;;;;5111655;28;20489;-67
2023/10/16 12:02:14;;;;;;;1999.90;999.90;;;21.70;18.40;;;;;;5111259;28;20225;-66
2023/10/16 12:04:41;;;;;;;1999.90;999.90;;;21.90;16.30;;;;;;5111778;28;20398;-67
2023/10/16 12:07:07;;;;;;;1999.90;999.90;;;21.90;12.90;;;;;;5111657;28;20487;-67
2023/10/16 12:09:37;;;;;;;1999.90;999.90;;;22.00;12.50;;;;;;5099098;28;20805;-68
2023/10/16 12:12:06;;;;;;;1999.90;999.90;;;21.90;9.10;;;;;;5092710;28;20456;-68
2023/10/16 12:14:37;;;;;;;1999.90;999.90;;;21.60;11.10;;;;;;5099375;28;20928;-67
2023/10/16 12:17:06;;;;;;;1999.90;999.90;;;21.60;11.30;;;;;;5090197;28;20433;-66
2023/10/16 12:19:33;;;;;;;1999.90;999.90;;;21.40;9.70;;;;;;5092526;28;20884;-66
2023/10/16 12:22:00;;;;;;;1999.90;999.90;;;21.30;11.00;;;;;;5080995;28;20827;-65
2023/10/16 12:24:26;;;;;;;1999.90;999.90;;;21.00;9.60;;;;;;5087373;28;21006;-66
2023/10/16 12:26:52;;;;;;;1999.90;999.90;;;20.80;9.90;;;;;;5102804;28;20957;-67
2023/10/16 12:29:18;;;;;;;1999.90;999.90;;;20.70;9.60;;;;;;5102798;28;20420;-68
2023/10/16 12:31:44;;;;;;;1999.90;999.90;;;20.50;10.60;;;;;;5102142;28;21069;-66
2023/10/16 12:34:16;;;;;;;1999.90;999.90;;;20.20;9.30;;;;;;5098549;28;20495;-68
2023/10/16 12:36:43;;;;;;;1999.90;999.90;;;20.00;9.20;;;;;;5090621;28;20187;-69
2023/10/16 12:39:28;;;;;;;1999.90;999.90;;;19.70;10.20;;;;;;5090145;28;20465;-65
2023/10/16 12:41:55;;;;;;;1999.90;999.90;;;19.70;9.90;;;;;;5093976;28;20450;-67
2023/10/16 12:44:23;;;;;;;1999.90;999.90;;;19.60;10.90;;;;;;5098898;28;20525;-66
2023/10/16 12:46:50;;;;;;;1999.90;999.90;;;19.60;10.40;;;;;;5089706;28;20853;-66
2023/10/16 12:49:15;;;;;;;1999.90;999.90;;;19.60;11.50;;;;;;5090490;28;20422;-69
2023/10/16 12:51:42;;;;;;;1999.90;999.90;;;19.70;11.10;;;;;;5090014;28;20924;-66
2023/10/16 12:54:09;;;;;;;1999.90;999.90;;;19.70;12.50;;;;;;5089671;28;20173;-67
2023/10/16 12:56:35;;;;;;;1999.90;999.90;;;19.60;10.00;;;;;;5084159;28;20489;-69
2023/10/16 12:59:02;;;;;;;1999.90;999.90;;;19.40;10.20;;;;;;5101192;28;20508;-66
2023/10/16 13:01:28;;;;;;;1999.90;999.90;;;19.20;10.90;;;;;;5082737;28;20444;-67
2023/10/16 13:03:59;;;;;;;1999.90;999.90;;;19.20;10.90;;;;;;5098600;28;20763;-66
2023/10/16 13:06:29;;;;;;;1999.90;999.90;;;19.10;13.20;;;;;;5102830;28;20207;-67
2023/10/16 13:08:56;;;;;;;1999.90;999.90;;;18.90;10.40;;;;;;5108101;28;20408;-66
2023/10/16 13:11:22;;;;;;;1999.90;999.90;;;18.80;11.50;;;;;;5109676;28;20890;-67
2023/10/16 13:13:48;;;;;;;1999.90;999.90;;;18.70;12.50;;;;;;5110317;28;20435;-67
2023/10/16 13:16:24;;;;;;;1999.90;999.90;;;18.70;13.70;;;;;;5109756;28;20268;-67
2023/10/16 13:18:57;;;;;;;1999.90;999.90;;;18.70;13.20;;;;;;5109428;28;20185;-66
2023/10/16 13:21:32;;;;;;;1999.90;999.90;;;18.70;12.90;;;;;;5109264;28;20440;-67
2023/10/16 13:24:12;;;;;;;1999.90;999.90;;;18.80;13.20;;;;;;5109516;28;20436;-67
2023/10/16 13:26:39;;;;;;;1999.90;999.90;;;18.90;11.70;;;;;;5109381;28;20472;-68
2023/10/16 13:29:13;;;;;;;1999.90;999.90;;;19.00;12.90;;;;;;5104134;28;20478;-70
2023/10/16 13:31:46;;;;;;;1999.90;999.90;;;18.90;13.10;;;;;;5094587;28;20450;-68
2023/10/16 13:34:15;;;;;;;1999.90;999.90;;;19.00;14.00;;;;;;5080887;28;20403;-67
2023/10/16 13:36:56;;;;;;;1999.90;999.90;;;18.90;14.00;;;;;;5097200;28;20422;-66
2023/10/16 13:39:25;;;;;;;1999.90;999.90;;;18.70;12.80;;;;;;5068109;28;20502;-67
2023/10/16 13:41:51;;;;;;;1999.90;999.90;;;18.60;12.90;;;;;;5068335;28;20435;-68
2023/10/16 13:44:21;;;;;;;1999.90;999.90;;;18.60;14.10;;;;;;5069325;28;20463;-66
2023/10/16 13:46:48;;;;;;;1999.90;999.90;;;18.50;13.50;;;;;;5069516;28;20485;-68
2023/10/16 13:49:15;;;;;;;1999.90;999.90;;;18.50;14.40;;;;;;5068336;28;20417;-68
2023/10/16 13:51:41;;;;;;;1999.90;999.90;;;18.50;14.10;;;;;;5068778;28;20431;-67
2023/10/16 13:54:11;;;;;;;1999.90;999.90;;;18.50;14.10;;;;;;5069046;28;20930;-67
2023/10/16 13:56:46;;;;;;;1999.90;999.90;;;18.60;13.10;;;;;;5068197;28;20431;-67
2023/10/16 13:59:13;;;;;;;1999.90;999.90;;;18.60;13.50;;;;;;5068223;28;20425;-66
2023/10/16 14:01:39;;;;;;;1999.90;999.90;;;18.60;13.60;;;;;;5068618;28;20449;-70
2023/10/16 14:04:13;;;;;;;1999.90;999.90;;;18.60;13.90;;;;;;5068954;28;20822;-69
2023/10/16 14:06:43;;;;;;;1999.90;999.90;;;18.70;15.70;;;;;;5078762;28;20465;-66
2023/10/16 14:09:20;;;;;;;1999.90;999.90;;;18.90;17.10;;;;;;5088255;28;21158;-67
2023/10/16 14:11:48;;;;;;;1999.90;999.90;;;19.20;16.10;;;;;;5088586;28;20570;-71
2023/10/16 14:14:18;;;;;;;1999.90;999.90;;;19.60;16.30;;;;;;5088333;28;20425;-68
2023/10/16 14:16:52;;;;;;;1999.90;999.90;;;19.80;14.50;;;;;;5091864;28;20793;-68
2023/10/16 14:19:22;;;;;;;1999.90;999.90;;;20.00;12.80;;;;;;5083949;28;20408;-69
2023/10/16 14:21:57;;;;;;;1999.90;999.90;;;20.00;11.80;;;;;;5080589;28;20532;-70
2023/10/16 14:24:24;;;;;;;1999.90;999.90;;;19.90;12.30;;;;;;5082198;28;20419;-67